createdAt,value
2023-02-12T00:00:56.778Z,15.75
2023-02-12T00:05:09.212Z,9.60
2023-02-12T00:09:21.622Z,6.32
2023-02-12T00:13:33.919Z,11.10
2023-02-12T00:17:46.377Z,6.70
2023-02-12T00:21:58.788Z,13.70
2023-02-12T00:26:14.274Z,18.73
2023-02-12T00:30:31.769Z,9.00
2023-02-12T00:34:45.034Z,7.25
2023-02-12T00:39:01.598Z,9.10
2023-02-12T00:43:14.083Z,6.95
2023-02-12T00:47:26.587Z,18.63
2023-02-12T00:51:38.897Z,12.85
2023-02-12T00:55:51.342Z,16.42
2023-02-12T01:00:04.754Z,11.98
2023-02-12T01:04:17.774Z,6.00
2023-02-12T01:08:30.593Z,12.52
2023-02-12T01:12:43.737Z,12.10
2023-02-12T01:16:56.054Z,9.63
2023-02-12T01:21:15.124Z,5.50
2023-02-12T01:25:27.981Z,4.50
2023-02-12T01:29:44.864Z,13.30
2023-02-12T01:33:59.423Z,10.93
2023-02-12T01:38:11.794Z,6.13
2023-02-12T01:42:24.080Z,8.07
2023-02-12T01:46:37.302Z,6.78
2023-02-12T01:50:52.292Z,8.45
2023-02-12T01:55:08.825Z,9.65
2023-02-12T01:59:22.437Z,14.10
2023-02-12T02:03:38.411Z,6.10
2023-02-12T02:07:50.981Z,16.48
2023-02-12T02:12:22.659Z,5.90
2023-02-12T02:16:36.846Z,15.73
2023-02-12T02:21:10.648Z,6.00
2023-02-12T02:25:33.678Z,12.60
2023-02-12T02:30:13.121Z,12.95
2023-02-12T02:35:01.290Z,13.95
2023-02-12T02:39:30.879Z,7.85
2023-02-12T02:43:52.038Z,10.23
2023-02-12T02:48:13.989Z,5.80
2023-02-12T02:52:43.725Z,12.55
2023-02-12T02:57:06.465Z,8.25
2023-02-12T03:01:31.717Z,9.23
2023-02-12T03:05:49.455Z,9.43
2023-02-12T03:10:12.090Z,20.55
2023-02-12T03:14:31.868Z,10.98
2023-02-12T03:19:27.666Z,14.27
2023-02-12T03:24:22.772Z,7.40
2023-02-12T03:28:38.630Z,12.63
2023-02-12T03:33:20.569Z,14.50
2023-02-12T03:37:38.968Z,13.93
2023-02-12T03:42:02.707Z,9.30
2023-02-12T03:46:33.057Z,5.82
2023-02-12T03:50:48.549Z,12.90
2023-02-12T03:55:01.056Z,7.85
2023-02-12T03:59:13.621Z,9.60
2023-02-12T04:03:26.336Z,11.75
2023-02-12T04:07:38.815Z,7.13
2023-02-12T04:12:21.861Z,4.60
2023-02-12T04:17:11.479Z,6.55
2023-02-12T04:21:46.885Z,12.80
2023-02-12T04:26:26.023Z,16.38
2023-02-12T04:30:45.716Z,8.80
2023-02-12T04:35:02.712Z,7.72
2023-02-12T04:39:23.648Z,6.65
2023-02-12T04:43:37.919Z,16.02
2023-02-12T04:47:50.313Z,11.07
2023-02-12T04:52:02.721Z,10.07
2023-02-12T04:56:15.442Z,12.80
2023-02-12T05:00:27.850Z,18.73
2023-02-12T05:04:40.283Z,8.32
2023-02-12T05:08:55.774Z,13.27
2023-02-12T05:13:08.182Z,13.85
2023-02-12T05:17:23.133Z,11.88
2023-02-12T05:21:36.482Z,21.92
2023-02-12T05:25:57.103Z,9.40
2023-02-12T05:30:10.093Z,31.23
2023-02-12T05:34:22.433Z,10.13
2023-02-12T05:38:35.408Z,20.80
2023-02-12T05:42:47.970Z,12.63
2023-02-12T05:47:00.399Z,21.70
2023-02-12T05:51:16.415Z,9.32
2023-02-12T05:55:29.147Z,20.67
2023-02-12T05:59:41.441Z,12.73
2023-02-12T06:03:53.932Z,7.68
2023-02-12T06:08:06.314Z,8.32
2023-02-12T06:12:18.771Z,26.75
2023-02-12T06:16:32.211Z,30.55
2023-02-12T06:20:44.529Z,19.17
2023-02-12T06:24:56.937Z,27.67
2023-02-12T06:29:09.433Z,15.18
2023-02-12T06:33:22.242Z,25.08
2023-02-12T06:37:37.391Z,27.65
2023-02-12T06:41:50.875Z,20.55
2023-02-12T06:46:04.499Z,15.05
2023-02-12T06:50:17.112Z,17.75
2023-02-12T06:54:29.538Z,36.78
2023-02-12T06:58:46.633Z,19.63
2023-02-12T07:02:59.071Z,21.35
2023-02-12T07:07:11.513Z,23.05
2023-02-12T07:11:28.790Z,34.78
2023-02-12T07:15:41.184Z,38.20
2023-02-12T07:19:54.445Z,48.40
2023-02-12T07:24:07.897Z,55.67
2023-02-12T07:28:21.477Z,52.50
2023-02-12T07:32:34.967Z,42.78
2023-02-12T07:36:47.359Z,43.80
2023-02-12T07:41:12.574Z,41.03
2023-02-12T07:45:25.252Z,47.88
2023-02-12T07:49:37.671Z,45.60
2023-02-12T07:53:50.455Z,45.70
2023-02-12T07:58:04.764Z,52.88
2023-02-12T08:02:17.130Z,45.33
2023-02-12T08:06:32.911Z,53.35
2023-02-12T08:10:45.332Z,68.22
2023-02-12T08:14:57.877Z,71.05
2023-02-12T08:19:19.364Z,64.97
2023-02-12T08:23:34.658Z,75.45
2023-02-12T08:27:47.545Z,83.43
2023-02-12T08:32:02.745Z,67.97
2023-02-12T08:36:18.753Z,96.68
2023-02-12T08:40:31.164Z,66.05
2023-02-12T08:44:43.534Z,69.22
2023-02-12T08:48:58.661Z,61.03
2023-02-12T08:53:11.666Z,69.85
2023-02-12T08:57:26.724Z,56.47
2023-02-12T09:01:42.089Z,64.50
2023-02-12T09:05:54.890Z,52.50
2023-02-12T09:10:08.303Z,66.63
2023-02-12T09:14:24.991Z,62.03
2023-02-12T09:18:38.751Z,60.30
2023-02-12T09:22:51.179Z,58.53
2023-02-12T09:27:03.876Z,58.80
2023-02-12T09:31:21.135Z,57.83
2023-02-12T09:35:38.038Z,62.15
2023-02-12T09:39:51.300Z,58.67
2023-02-12T09:44:11.621Z,71.57
2023-02-12T09:48:42.389Z,58.42
2023-02-12T09:52:58.232Z,53.22
2023-02-12T09:57:21.775Z,43.65
2023-02-12T10:01:35.385Z,50.60
2023-02-12T10:06:00.248Z,57.20
2023-02-12T10:10:25.934Z,54.95
2023-02-12T10:15:17.318Z,53.83
2023-02-12T10:19:38.562Z,51.87
2023-02-12T10:24:05.914Z,41.28
2023-02-12T10:28:24.425Z,45.53
2023-02-12T10:32:38.955Z,42.15
2023-02-12T10:36:54.456Z,35.00
2023-02-12T10:41:16.598Z,24.60
2023-02-12T10:45:39.178Z,28.17
2023-02-12T10:49:58.236Z,32.83
2023-02-12T10:54:41.320Z,25.13
2023-02-12T10:58:59.703Z,36.70
2023-02-12T11:03:12.028Z,42.30
2023-02-12T11:07:26.572Z,38.58
2023-02-12T11:11:39.424Z,35.28
2023-02-12T11:15:52.159Z,38.00
2023-02-12T11:20:23.103Z,36.15
2023-02-12T11:24:37.408Z,30.90
2023-02-12T11:29:01.273Z,31.27
2023-02-12T11:33:37.590Z,31.80
2023-02-12T11:37:52.829Z,37.13
2023-02-12T11:42:20.466Z,28.45
2023-02-12T11:46:33.099Z,33.22
2023-02-12T11:50:51.207Z,25.65
2023-02-12T11:55:41.734Z,21.45
2023-02-12T11:59:56.740Z,21.30
2023-02-12T12:04:15.391Z,25.98
2023-02-12T12:08:49.916Z,23.55
2023-02-12T12:13:13.509Z,24.60
2023-02-12T12:18:12.772Z,21.42
2023-02-12T12:22:50.667Z,21.90
2023-02-12T12:27:51.121Z,21.63
2023-02-12T12:32:07.539Z,21.25
2023-02-12T12:37:16.015Z,22.45
2023-02-12T12:41:34.711Z,19.42
2023-02-12T12:46:15.570Z,20.83
2023-02-12T12:50:46.509Z,22.70
2023-02-12T12:55:34.409Z,22.33
2023-02-12T13:00:25.447Z,25.27
2023-02-12T13:04:51.641Z,28.60
2023-02-12T13:09:24.225Z,24.98
2023-02-12T13:14:04.283Z,20.35
2023-02-12T13:18:41.210Z,10.52
2023-02-12T13:23:04.500Z,12.02
2023-02-12T13:27:35.710Z,10.50
2023-02-12T13:32:09.242Z,18.25
2023-02-12T13:36:21.720Z,10.88
2023-02-12T13:40:35.513Z,13.07
2023-02-12T13:44:57.211Z,11.43
2023-02-12T13:49:25.371Z,12.23
2023-02-12T13:53:47.384Z,8.98
2023-02-12T13:58:39.461Z,10.60
2023-02-12T14:02:52.976Z,8.73
2023-02-12T14:07:10.542Z,5.85
2023-02-12T14:11:25.750Z,9.13
2023-02-12T14:15:45.249Z,10.80
2023-02-12T14:20:28.536Z,12.10
2023-02-12T14:24:53.187Z,9.98
2023-02-12T14:29:21.330Z,11.35
2023-02-12T14:33:36.184Z,9.18
2023-02-12T14:37:48.599Z,10.05
2023-02-12T14:42:25.989Z,9.32
2023-02-12T14:46:38.363Z,6.40
2023-02-12T14:50:52.578Z,6.07
2023-02-12T14:55:08.425Z,9.43
2023-02-12T14:59:24.485Z,8.30
2023-02-12T15:03:46.657Z,8.40
2023-02-12T15:08:24.140Z,10.90
2023-02-12T15:12:52.254Z,12.23
2023-02-12T15:17:11.929Z,15.07
2023-02-12T15:21:31.838Z,11.98
2023-02-12T15:25:45.327Z,14.10
2023-02-12T15:29:58.611Z,9.40
2023-02-12T15:34:24.306Z,18.40
2023-02-12T15:38:50.732Z,8.25
2023-02-12T15:43:07.584Z,11.77
2023-02-12T15:47:24.953Z,12.65
2023-02-12T15:51:42.065Z,6.80
2023-02-12T15:55:56.547Z,7.20
2023-02-12T16:00:41.745Z,5.88
2023-02-12T16:04:56.363Z,7.43
2023-02-12T16:09:16.008Z,7.53
2023-02-12T16:13:34.923Z,9.07
2023-02-12T16:17:48.618Z,6.07
2023-02-12T16:22:14.576Z,7.40
2023-02-12T16:26:28.140Z,5.82
2023-02-12T16:30:43.441Z,4.65
2023-02-12T16:35:06.256Z,10.23
2023-02-12T16:39:45.633Z,14.20
2023-02-12T16:44:11.086Z,16.80
2023-02-12T16:48:25.459Z,12.27
2023-02-12T16:52:42.667Z,15.80
2023-02-12T16:56:59.035Z,12.68
2023-02-12T17:01:18.377Z,15.50
2023-02-12T17:05:30.659Z,12.38
2023-02-12T17:09:43.037Z,12.00
2023-02-12T17:13:56.085Z,13.85
2023-02-12T17:18:09.008Z,11.38
2023-02-12T17:22:24.761Z,14.23
2023-02-12T17:26:40.968Z,14.85
2023-02-12T17:30:54.548Z,13.32
2023-02-12T17:35:09.486Z,7.45
2023-02-12T17:39:22.034Z,11.30
2023-02-12T17:43:36.670Z,10.90
2023-02-12T17:47:50.092Z,18.60
2023-02-12T17:52:06.426Z,12.52
2023-02-12T17:56:21.966Z,10.18
2023-02-12T18:00:34.807Z,11.98
2023-02-12T18:04:47.007Z,8.73
2023-02-12T18:09:01.893Z,10.00
2023-02-12T18:13:15.824Z,8.02
2023-02-12T18:17:37.845Z,8.48
2023-02-12T18:21:50.145Z,8.93
2023-02-12T18:26:11.362Z,7.40
2023-02-12T18:30:24.919Z,9.50
2023-02-12T18:34:37.365Z,14.73
2023-02-12T18:38:54.819Z,13.73
2023-02-12T18:43:07.291Z,13.32
2023-02-12T18:47:19.770Z,10.50
2023-02-12T18:51:36.711Z,10.88
2023-02-12T18:55:49.344Z,19.92
2023-02-12T19:00:03.785Z,13.27
2023-02-12T19:04:18.828Z,12.43
2023-02-12T19:08:32.388Z,17.98
2023-02-12T19:12:45.120Z,20.77
2023-02-12T19:16:57.700Z,23.77
2023-02-12T19:21:13.222Z,32.22
2023-02-12T19:25:25.834Z,55.10
2023-02-12T19:29:38.361Z,50.00
2023-02-12T19:33:54.731Z,57.40
2023-02-12T19:38:09.803Z,49.33
2023-02-12T19:42:22.398Z,35.03
2023-02-12T19:46:35.980Z,44.20
2023-02-12T19:50:48.440Z,41.97
2023-02-12T19:55:00.852Z,63.67
2023-02-12T19:59:17.375Z,57.53
2023-02-12T20:03:29.827Z,54.17
2023-02-12T20:07:43.297Z,41.63
2023-02-12T20:11:57.359Z,32.08
2023-02-12T20:16:12.883Z,24.42
2023-02-12T20:20:25.565Z,28.23
2023-02-12T20:24:39.134Z,30.27
2023-02-12T20:28:51.696Z,31.52
2023-02-12T20:33:04.021Z,34.38
2023-02-12T20:37:18.439Z,25.23
2023-02-12T20:41:30.867Z,31.33
2023-02-12T20:45:43.383Z,33.53
2023-02-12T20:49:56.704Z,41.22
2023-02-12T20:54:09.451Z,35.75
2023-02-12T20:58:21.718Z,40.08
2023-02-12T21:02:34.164Z,32.88
2023-02-12T21:06:49.574Z,34.38
2023-02-12T21:11:06.239Z,25.63
2023-02-12T21:15:18.605Z,39.65
2023-02-12T21:19:31.035Z,35.75
2023-02-12T21:23:44.714Z,29.35
2023-02-12T21:27:57.092Z,28.20
2023-02-12T21:32:09.799Z,38.38
2023-02-12T21:36:25.626Z,36.05
2023-02-12T21:40:37.996Z,40.70
2023-02-12T21:44:50.413Z,34.80
2023-02-12T21:49:04.070Z,35.60
2023-02-12T21:53:17.330Z,31.83
2023-02-12T21:57:29.767Z,49.65
2023-02-12T22:01:49.176Z,50.22
2023-02-12T22:06:03.784Z,26.70
2023-02-12T22:10:19.863Z,41.45
2023-02-12T22:14:33.125Z,40.92
2023-02-12T22:18:50.662Z,51.92
2023-02-12T22:23:03.280Z,34.75
2023-02-12T22:27:16.805Z,32.90
2023-02-12T22:31:32.102Z,27.45
2023-02-12T22:35:44.590Z,29.60
2023-02-12T22:39:57.072Z,20.27
2023-02-12T22:44:11.137Z,24.20
2023-02-12T22:48:25.852Z,17.65
2023-02-12T22:52:38.538Z,19.75
2023-02-12T22:56:52.367Z,13.98
2023-02-12T23:01:09.580Z,14.80
2023-02-12T23:05:22.199Z,11.23
2023-02-12T23:09:34.577Z,11.32
2023-02-12T23:13:47.070Z,12.15
2023-02-12T23:17:59.466Z,10.90
2023-02-12T23:22:14.741Z,14.23
2023-02-12T23:26:29.624Z,10.32
2023-02-12T23:30:42.243Z,11.05
2023-02-12T23:34:54.690Z,11.63
2023-02-12T23:39:07.414Z,14.48
2023-02-12T23:43:19.738Z,8.27
2023-02-12T23:47:32.191Z,10.77
2023-02-12T23:51:46.644Z,16.83
2023-02-12T23:56:04.456Z,17.42
